createdAt,value
2018-12-11T00:00:43.998Z,0.00
2018-12-11T00:01:43.991Z,0.00
2018-12-11T00:02:43.893Z,0.00
2018-12-11T00:03:43.888Z,0.00
2018-12-11T00:04:43.892Z,0.00
2018-12-11T00:05:43.858Z,0.00
2018-12-11T00:06:43.904Z,0.00
2018-12-11T00:07:43.838Z,0.00
2018-12-11T00:08:43.825Z,0.00
2018-12-11T00:09:43.822Z,0.00
2018-12-11T00:10:43.839Z,0.00
2018-12-11T00:11:43.793Z,0.00
2018-12-11T00:12:43.777Z,0.00
2018-12-11T00:13:43.783Z,0.00
2018-12-11T00:14:43.766Z,0.00
2018-12-11T00:15:43.751Z,0.00
2018-12-11T00:16:43.765Z,0.00
2018-12-11T00:17:43.727Z,0.00
2018-12-11T00:18:43.719Z,0.00
2018-12-11T00:19:43.711Z,0.00
2018-12-11T00:20:43.704Z,0.00
2018-12-11T00:21:43.713Z,0.00
2018-12-11T00:22:43.693Z,0.00
2018-12-11T00:23:43.659Z,0.00
2018-12-11T00:24:43.660Z,0.00
2018-12-11T00:25:43.647Z,0.00
2018-12-11T00:26:43.671Z,0.00
2018-12-11T00:27:43.623Z,0.00
2018-12-11T00:28:43.604Z,0.00
2018-12-11T00:29:43.593Z,0.00
2018-12-11T00:30:43.594Z,0.00
2018-12-11T00:31:43.610Z,0.00
2018-12-11T00:32:43.569Z,0.00
2018-12-11T00:33:43.551Z,0.00
2018-12-11T00:34:43.544Z,0.00
2018-12-11T00:35:43.531Z,0.00
2018-12-11T00:36:43.559Z,0.00
2018-12-11T00:37:43.532Z,0.00
2018-12-11T00:38:43.500Z,0.00
2018-12-11T00:39:43.488Z,0.00
2018-12-11T00:40:43.497Z,0.00
2018-12-11T00:41:43.472Z,0.00
2018-12-11T00:42:43.504Z,0.00
2018-12-11T00:43:43.446Z,0.00
2018-12-11T00:44:43.448Z,0.00
2018-12-11T00:45:43.427Z,0.00
2018-12-11T00:46:43.416Z,0.00
2018-12-11T00:47:43.407Z,0.00
2018-12-11T00:48:43.426Z,0.00
2018-12-11T00:49:43.379Z,0.00
2018-12-11T00:50:43.369Z,0.00
2018-12-11T00:51:43.355Z,0.00
2018-12-11T00:52:43.350Z,0.00
2018-12-11T00:53:43.374Z,0.00
2018-12-11T00:54:43.331Z,0.00
2018-12-11T00:55:43.312Z,0.00
2018-12-11T00:56:43.316Z,0.00
2018-12-11T00:57:43.295Z,0.00
2018-12-11T00:58:43.456Z,0.00
2018-12-11T00:59:43.273Z,0.00
2018-12-11T01:00:43.261Z,0.00
2018-12-11T01:01:43.255Z,0.00
2018-12-11T01:02:43.239Z,0.00
2018-12-11T01:03:43.236Z,0.00
2018-12-11T01:04:43.257Z,0.00
2018-12-11T01:05:43.205Z,0.00
2018-12-11T01:06:43.192Z,0.00
2018-12-11T01:07:43.186Z,0.00
2018-12-11T01:08:43.167Z,0.00
2018-12-11T01:09:43.215Z,0.00
2018-12-11T01:10:43.157Z,0.00
2018-12-11T01:11:43.157Z,0.00
2018-12-11T01:12:43.156Z,0.00
2018-12-11T01:13:43.118Z,0.00
2018-12-11T01:14:43.151Z,0.00
2018-12-11T01:15:43.095Z,0.00
2018-12-11T01:16:43.096Z,0.00
2018-12-11T01:17:43.088Z,0.00
2018-12-11T01:18:43.062Z,0.00
2018-12-11T01:19:43.088Z,0.00
2018-12-11T01:20:43.243Z,0.00
2018-12-11T01:21:43.139Z,0.00
2018-12-11T01:22:43.023Z,0.00
2018-12-11T01:23:43.011Z,0.00
2018-12-11T01:24:42.999Z,0.00
2018-12-11T01:25:43.068Z,0.00
2018-12-11T01:26:42.970Z,0.00
2018-12-11T01:27:42.961Z,0.00
2018-12-11T01:28:42.955Z,0.00
2018-12-11T01:29:42.944Z,0.00
2018-12-11T01:30:42.934Z,0.00
2018-12-11T01:31:42.951Z,0.00
2018-12-11T01:32:42.906Z,0.00
2018-12-11T01:33:42.910Z,0.00
2018-12-11T01:34:42.889Z,0.00
2018-12-11T01:35:42.883Z,0.00
2018-12-11T01:36:42.900Z,0.00
2018-12-11T01:37:42.947Z,0.00
2018-12-11T01:38:42.866Z,0.00
2018-12-11T01:39:42.833Z,0.00
2018-12-11T01:40:42.825Z,0.00
2018-12-11T01:41:42.808Z,0.00
2018-12-11T01:42:42.833Z,0.00
2018-12-11T01:43:42.790Z,0.00
2018-12-11T01:44:42.777Z,0.00
2018-12-11T01:45:42.766Z,0.00
2018-12-11T01:46:42.755Z,0.00
2018-12-11T01:47:42.745Z,0.00
2018-12-11T01:48:42.789Z,0.00
2018-12-11T01:49:42.768Z,0.00
2018-12-11T01:50:42.716Z,0.00
2018-12-11T01:51:42.704Z,0.00
2018-12-11T01:52:42.692Z,0.00
2018-12-11T01:53:42.805Z,0.00
2018-12-11T01:54:42.716Z,0.00
2018-12-11T01:55:42.673Z,0.00
2018-12-11T01:56:42.684Z,0.00
2018-12-11T01:57:42.640Z,0.00
2018-12-11T01:58:42.626Z,0.00
2018-12-11T01:59:42.637Z,0.00
2018-12-11T02:00:42.609Z,0.00
2018-12-11T02:01:42.590Z,0.00
2018-12-11T02:02:42.577Z,0.00
2018-12-11T02:03:42.573Z,0.00
2018-12-11T02:04:42.567Z,0.00
2018-12-11T02:05:42.574Z,0.00
2018-12-11T02:06:42.538Z,0.00
2018-12-11T02:07:42.522Z,0.00
2018-12-11T02:08:42.514Z,0.00
2018-12-11T02:09:42.515Z,0.00
2018-12-11T02:10:42.520Z,0.00
2018-12-11T02:11:42.485Z,0.00
2018-12-11T02:12:42.479Z,0.00
2018-12-11T02:13:42.465Z,0.00
2018-12-11T02:14:42.458Z,0.00
2018-12-11T02:15:42.472Z,0.00
2018-12-11T02:16:42.430Z,0.00
2018-12-11T02:17:42.495Z,0.00
2018-12-11T02:18:42.410Z,0.00
2018-12-11T02:19:42.397Z,0.00
2018-12-11T02:20:42.387Z,0.00
2018-12-11T02:21:42.401Z,0.00
2018-12-11T02:22:42.364Z,0.00
2018-12-11T02:23:42.351Z,0.00
2018-12-11T02:24:42.347Z,0.00
2018-12-11T02:25:42.349Z,0.00
2018-12-11T02:26:42.359Z,0.00
2018-12-11T02:27:42.331Z,0.00
2018-12-11T02:28:42.307Z,0.00
2018-12-11T02:29:42.301Z,0.00
2018-12-11T02:30:42.279Z,0.00
2018-12-11T02:31:42.296Z,0.00
2018-12-11T02:32:42.255Z,0.00
2018-12-11T02:33:42.257Z,0.00
2018-12-11T02:34:42.233Z,0.00
2018-12-11T02:35:42.221Z,0.00
2018-12-11T02:36:42.375Z,0.00
2018-12-11T02:37:42.201Z,0.00
2018-12-11T02:38:42.191Z,0.00
2018-12-11T02:39:42.183Z,0.00
2018-12-11T02:40:42.179Z,0.00
2018-12-11T02:41:42.164Z,0.00
2018-12-11T02:42:42.188Z,0.00
2018-12-11T02:43:42.137Z,0.00
2018-12-11T02:44:42.122Z,0.00
2018-12-11T02:45:42.147Z,0.00
2018-12-11T02:46:42.108Z,0.00
2018-12-11T02:47:42.128Z,0.00
2018-12-11T02:48:42.083Z,0.00
2018-12-11T02:49:42.170Z,0.00
2018-12-11T02:50:42.064Z,0.00
2018-12-11T02:51:42.049Z,0.00
2018-12-11T02:52:42.073Z,0.00
2018-12-11T02:53:42.035Z,0.00
2018-12-11T02:54:42.021Z,0.00
2018-12-11T02:55:42.023Z,0.00
2018-12-11T02:56:42.003Z,0.00
2018-12-11T02:57:41.997Z,0.00
2018-12-11T02:58:42.003Z,0.00
2018-12-11T02:59:41.966Z,0.00
2018-12-11T03:00:42.048Z,0.00
2018-12-11T03:01:41.947Z,0.00
2018-12-11T03:02:41.927Z,0.00
2018-12-11T03:03:41.947Z,0.00
2018-12-11T03:04:41.905Z,0.00
2018-12-11T03:05:41.904Z,0.00
2018-12-11T03:06:41.888Z,0.00
2018-12-11T03:07:41.879Z,0.00
2018-12-11T03:08:41.870Z,0.00
2018-12-11T03:09:41.909Z,0.00
2018-12-11T03:10:41.846Z,0.00
2018-12-11T03:11:41.831Z,0.00
2018-12-11T03:12:41.821Z,0.00
2018-12-11T03:13:41.806Z,0.00
2018-12-11T03:14:41.828Z,0.00
2018-12-11T03:15:41.791Z,0.00
2018-12-11T03:16:41.794Z,0.00
2018-12-11T03:17:41.769Z,0.00
2018-12-11T03:18:41.757Z,0.00
2018-12-11T03:19:41.755Z,0.00
2018-12-11T03:20:41.765Z,0.00
2018-12-11T03:21:41.719Z,0.00
2018-12-11T03:22:41.708Z,0.00
2018-12-11T03:23:41.697Z,0.00
2018-12-11T03:24:41.716Z,0.00
2018-12-11T03:25:41.707Z,0.00
2018-12-11T03:26:41.664Z,0.00
2018-12-11T03:27:41.656Z,0.00
2018-12-11T03:28:41.647Z,0.00
2018-12-11T03:29:41.635Z,0.00
2018-12-11T03:30:41.657Z,0.00
2018-12-11T03:31:41.643Z,0.00
2018-12-11T03:32:41.602Z,0.00
2018-12-11T03:33:41.592Z,0.00
2018-12-11T03:34:41.581Z,0.00
2018-12-11T03:35:41.580Z,0.00
2018-12-11T03:36:41.600Z,0.00
2018-12-11T03:37:41.551Z,0.00
2018-12-11T03:38:41.538Z,0.00
2018-12-11T03:39:41.538Z,0.00
2018-12-11T03:40:41.529Z,0.00
2018-12-11T03:41:41.537Z,0.00
2018-12-11T03:42:41.495Z,0.00
2018-12-11T03:43:41.485Z,0.00
2018-12-11T03:44:41.469Z,0.00
2018-12-11T03:45:41.456Z,0.00
2018-12-11T03:46:41.482Z,0.00
2018-12-11T03:47:41.436Z,0.00
2018-12-11T03:48:41.434Z,0.00
2018-12-11T03:49:41.426Z,0.00
2018-12-11T03:50:41.421Z,0.00
2018-12-11T03:51:41.437Z,0.00
2018-12-11T03:52:41.386Z,0.00
2018-12-11T03:53:41.371Z,0.00
2018-12-11T03:54:41.363Z,0.00
2018-12-11T03:55:41.346Z,0.00
2018-12-11T03:56:41.465Z,0.00
2018-12-11T03:57:41.363Z,0.00
2018-12-11T03:58:41.315Z,0.00
2018-12-11T03:59:41.339Z,0.00
2018-12-11T04:00:41.299Z,0.00
2018-12-11T04:01:41.286Z,0.00
2018-12-11T04:02:41.305Z,0.00
2018-12-11T04:03:41.292Z,0.00
2018-12-11T04:04:41.256Z,0.00
2018-12-11T04:05:41.246Z,0.00
2018-12-11T04:06:41.229Z,0.00
2018-12-11T04:07:41.317Z,0.00
2018-12-11T04:08:41.208Z,0.00
2018-12-11T04:09:41.203Z,0.00
2018-12-11T04:10:41.187Z,0.00
2018-12-11T04:11:41.181Z,0.00
2018-12-11T04:12:41.303Z,0.00
2018-12-11T04:13:41.191Z,0.00
2018-12-11T04:14:41.146Z,0.00
2018-12-11T04:15:41.206Z,0.00
2018-12-11T04:16:41.122Z,0.00
2018-12-11T04:17:41.123Z,0.00
2018-12-11T04:18:41.136Z,0.00
2018-12-11T04:19:41.092Z,0.00
2018-12-11T04:20:41.072Z,0.00
2018-12-11T04:21:41.069Z,0.00
2018-12-11T04:22:41.061Z,0.00
2018-12-11T04:23:41.086Z,0.00
2018-12-11T04:24:41.035Z,0.00
2018-12-11T04:25:41.053Z,0.00
2018-12-11T04:26:41.015Z,0.00
2018-12-11T04:27:41.004Z,0.00
2018-12-11T04:28:40.990Z,0.00
2018-12-11T04:29:41.014Z,0.00
2018-12-11T04:30:40.971Z,0.00
2018-12-11T04:31:40.959Z,0.00
2018-12-11T04:32:40.946Z,0.00
2018-12-11T04:33:40.941Z,0.00
2018-12-11T04:34:40.954Z,0.00
2018-12-11T04:35:40.917Z,0.00
2018-12-11T04:36:40.915Z,0.00
2018-12-11T04:37:40.890Z,0.00
2018-12-11T04:38:40.893Z,0.00
2018-12-11T04:39:40.911Z,0.00
2018-12-11T04:40:40.861Z,0.00
2018-12-11T04:41:40.845Z,0.00
2018-12-11T04:42:40.839Z,0.00
2018-12-11T04:43:40.828Z,0.00
2018-12-11T04:44:40.852Z,0.00
2018-12-11T04:45:40.804Z,0.00
2018-12-11T04:46:40.794Z,0.00
2018-12-11T04:47:40.795Z,0.00
2018-12-11T04:48:40.772Z,0.00
2018-12-11T04:49:40.764Z,0.00
2018-12-11T04:50:40.777Z,0.00
2018-12-11T04:51:40.750Z,0.00
2018-12-11T04:52:41.256Z,0.00
2018-12-11T04:53:40.718Z,0.00
2018-12-11T04:54:40.728Z,0.00
2018-12-11T04:55:40.759Z,0.00
2018-12-11T04:56:40.908Z,0.00
2018-12-11T04:57:40.903Z,0.00
2018-12-11T04:58:40.668Z,0.00
2018-12-11T04:59:40.651Z,0.00
2018-12-11T05:00:40.680Z,0.00
2018-12-11T05:01:40.662Z,0.00
2018-12-11T05:02:40.623Z,0.00
2018-12-11T05:03:40.610Z,0.00
2018-12-11T05:04:40.599Z,0.00
2018-12-11T05:05:40.623Z,0.00
2018-12-11T05:06:40.576Z,0.00
2018-12-11T05:07:40.564Z,0.00
2018-12-11T05:08:40.563Z,0.00
2018-12-11T05:09:40.541Z,0.00
2018-12-11T05:10:40.535Z,0.00
2018-12-11T05:11:40.593Z,0.00
2018-12-11T05:12:40.507Z,0.00
2018-12-11T05:13:40.497Z,0.00
2018-12-11T05:14:40.491Z,0.00
2018-12-11T05:15:40.485Z,0.00
2018-12-11T05:16:40.535Z,0.00
2018-12-11T05:17:40.456Z,0.00
2018-12-11T05:18:40.451Z,0.00
2018-12-11T05:19:40.430Z,0.00
2018-12-11T05:20:40.422Z,0.00
2018-12-11T05:21:40.419Z,0.00
2018-12-11T05:22:40.530Z,0.00
2018-12-11T05:23:40.393Z,0.00
2018-12-11T05:24:40.382Z,0.00
2018-12-11T05:25:40.394Z,0.00
2018-12-11T05:26:40.361Z,0.00
2018-12-11T05:27:40.371Z,0.00
2018-12-11T05:28:40.338Z,0.00
2018-12-11T05:29:40.328Z,0.00
2018-12-11T05:30:40.314Z,0.00
2018-12-11T05:31:40.321Z,0.00
2018-12-11T05:32:40.429Z,0.00
2018-12-11T05:33:40.291Z,0.00
2018-12-11T05:34:40.289Z,0.00
2018-12-11T05:35:40.259Z,0.00
2018-12-11T05:36:40.263Z,0.00
2018-12-11T05:37:40.286Z,0.00
2018-12-11T05:38:40.223Z,0.00
2018-12-11T05:39:40.213Z,0.00
2018-12-11T05:40:40.200Z,0.00
2018-12-11T05:41:40.197Z,0.00
2018-12-11T05:42:40.221Z,0.00
2018-12-11T05:43:40.180Z,0.00
2018-12-11T05:44:40.171Z,0.00
2018-12-11T05:45:40.147Z,0.00
2018-12-11T05:46:40.137Z,0.00
2018-12-11T05:47:40.170Z,0.00
2018-12-11T05:48:40.128Z,0.00
2018-12-11T05:49:40.117Z,0.00
2018-12-11T05:50:40.105Z,0.00
2018-12-11T05:51:40.086Z,0.00
2018-12-11T05:52:40.072Z,0.00
2018-12-11T05:53:40.090Z,0.00
2018-12-11T05:54:40.067Z,0.00
2018-12-11T05:55:40.042Z,0.00
2018-12-11T05:56:40.048Z,0.00
2018-12-11T05:57:40.018Z,0.00
2018-12-11T05:58:40.015Z,0.00
2018-12-11T05:59:40.041Z,0.00
2018-12-11T06:00:39.997Z,0.00
2018-12-11T06:01:39.984Z,0.00
2018-12-11T06:02:40.004Z,0.00
2018-12-11T06:03:39.960Z,0.00
2018-12-11T06:04:39.992Z,0.00
2018-12-11T06:05:39.934Z,0.00
2018-12-11T06:06:39.923Z,0.00
2018-12-11T06:07:39.917Z,0.00
2018-12-11T06:08:39.897Z,0.00
2018-12-11T06:09:39.892Z,0.00
2018-12-11T06:10:39.914Z,0.00
2018-12-11T06:11:39.866Z,0.00
2018-12-11T06:12:39.909Z,0.00
2018-12-11T06:13:39.857Z,0.00
2018-12-11T06:14:39.830Z,0.00
2018-12-11T06:15:39.864Z,0.00
2018-12-11T06:16:39.807Z,0.00
2018-12-11T06:17:39.804Z,0.00
2018-12-11T06:18:39.793Z,0.00
2018-12-11T06:19:39.781Z,0.00
2018-12-11T06:20:39.851Z,0.00
2018-12-11T06:21:39.772Z,0.00
2018-12-11T06:22:39.747Z,0.00
2018-12-11T06:23:39.772Z,0.00
2018-12-11T06:24:39.724Z,0.00
2018-12-11T06:25:39.712Z,0.00
2018-12-11T06:26:39.726Z,0.00
2018-12-11T06:27:39.696Z,0.00
2018-12-11T06:28:39.766Z,0.00
2018-12-11T06:29:39.674Z,0.00
2018-12-11T06:30:39.700Z,0.00
2018-12-11T06:31:39.707Z,0.00
2018-12-11T06:32:39.642Z,0.00
2018-12-11T06:33:39.636Z,0.00
2018-12-11T06:34:39.614Z,0.00
2018-12-11T06:35:39.612Z,0.00
2018-12-11T06:36:39.603Z,0.00
2018-12-11T06:37:39.617Z,0.00
2018-12-11T06:38:39.577Z,0.00
2018-12-11T06:39:39.566Z,0.00
2018-12-11T06:40:39.554Z,0.00
2018-12-11T06:41:39.555Z,0.00
2018-12-11T06:42:39.555Z,0.00
2018-12-11T06:43:39.512Z,0.00
2018-12-11T06:44:39.588Z,0.00
2018-12-11T06:45:39.494Z,0.00
2018-12-11T06:46:39.481Z,0.00
2018-12-11T06:47:39.471Z,0.00
2018-12-11T06:48:39.500Z,0.00
2018-12-11T06:49:39.446Z,0.00
2018-12-11T06:50:39.464Z,0.00
2018-12-11T06:51:39.433Z,0.00
2018-12-11T06:52:39.418Z,0.00
2018-12-11T06:53:39.441Z,0.00
2018-12-11T06:54:39.389Z,0.00
2018-12-11T06:55:39.379Z,0.00
2018-12-11T06:56:39.375Z,0.00
2018-12-11T06:57:39.360Z,0.00
2018-12-11T06:58:40.797Z,4.00
2018-12-11T06:59:39.377Z,4.00
2018-12-11T07:00:39.326Z,0.00
2018-12-11T07:01:39.314Z,4.00
2018-12-11T07:02:39.304Z,4.00
2018-12-11T07:03:39.294Z,4.00
2018-12-11T07:04:39.317Z,4.00
2018-12-11T07:05:39.277Z,4.00
2018-12-11T07:06:39.269Z,4.00
2018-12-11T07:07:39.277Z,8.00
2018-12-11T07:08:39.248Z,8.00
2018-12-11T07:09:39.261Z,8.00
2018-12-11T07:10:39.241Z,8.00
2018-12-11T07:11:39.208Z,12.00
2018-12-11T07:12:39.195Z,12.00
2018-12-11T07:13:39.188Z,12.00
2018-12-11T07:14:39.242Z,16.00
2018-12-11T07:15:39.172Z,16.00
2018-12-11T07:16:39.163Z,20.00
2018-12-11T07:17:39.142Z,24.00
2018-12-11T07:18:39.134Z,28.00
2018-12-11T07:19:39.130Z,28.00
2018-12-11T07:20:39.147Z,32.00
2018-12-11T07:21:39.110Z,32.00
2018-12-11T07:22:39.116Z,36.00
2018-12-11T07:23:39.075Z,40.00
2018-12-11T07:24:39.219Z,44.00
2018-12-11T07:25:39.086Z,52.00
2018-12-11T07:26:39.043Z,56.00
2018-12-11T07:27:39.072Z,60.00
2018-12-11T07:28:39.025Z,64.00
2018-12-11T07:29:39.007Z,68.00
2018-12-11T07:30:39.026Z,72.00
2018-12-11T07:31:38.985Z,72.00
2018-12-11T07:32:38.984Z,84.00
2018-12-11T07:33:38.973Z,88.00
2018-12-11T07:34:38.955Z,92.00
2018-12-11T07:35:38.974Z,104.00
2018-12-11T07:36:38.944Z,104.00
2018-12-11T07:37:38.934Z,112.00
2018-12-11T07:38:38.912Z,116.00
2018-12-11T07:39:38.925Z,120.00
2018-12-11T07:40:38.897Z,136.00
2018-12-11T07:41:38.945Z,144.00
2018-12-11T07:42:38.875Z,152.00
2018-12-11T07:43:38.855Z,160.00
2018-12-11T07:44:38.859Z,192.00
2018-12-11T07:45:38.834Z,292.00
2018-12-11T07:46:38.890Z,320.00
2018-12-11T07:47:38.815Z,280.00
2018-12-11T07:48:38.886Z,224.00
2018-12-11T07:49:38.791Z,204.00
2018-12-11T07:50:38.777Z,208.00
2018-12-11T07:51:38.775Z,196.00
2018-12-11T07:52:38.814Z,200.00
2018-12-11T07:53:38.747Z,208.00
2018-12-11T07:54:38.739Z,216.00
2018-12-11T07:55:38.726Z,220.00
2018-12-11T07:56:38.735Z,236.00
2018-12-11T07:57:38.724Z,236.00
2018-12-11T07:58:38.758Z,244.00
2018-12-11T07:59:38.734Z,244.00
2018-12-11T08:00:38.671Z,240.00
2018-12-11T08:01:38.676Z,244.00
2018-12-11T08:02:38.649Z,260.00
2018-12-11T08:03:38.639Z,280.00
2018-12-11T08:04:38.723Z,292.00
2018-12-11T08:05:38.641Z,312.00
2018-12-11T08:06:38.620Z,328.00
2018-12-11T08:07:38.623Z,332.00
2018-12-11T08:08:38.603Z,352.00
2018-12-11T08:09:38.605Z,392.00
2018-12-11T08:10:38.562Z,384.00
2018-12-11T08:11:38.562Z,368.00
2018-12-11T08:12:38.544Z,352.00
2018-12-11T08:13:38.531Z,348.00
2018-12-11T08:14:38.521Z,356.00
2018-12-11T08:15:38.539Z,376.00
2018-12-11T08:16:38.499Z,384.00
2018-12-11T08:17:38.481Z,404.00
2018-12-11T08:18:38.483Z,416.00
2018-12-11T08:19:38.502Z,440.00
2018-12-11T08:20:38.451Z,484.00
2018-12-11T08:21:38.459Z,580.00
2018-12-11T08:22:38.446Z,652.00
2018-12-11T08:23:38.424Z,680.00
2018-12-11T08:24:38.415Z,664.00
2018-12-11T08:25:38.438Z,660.00
2018-12-11T08:26:38.383Z,632.00
2018-12-11T08:27:38.376Z,612.00
2018-12-11T08:28:38.373Z,612.00
2018-12-11T08:29:38.364Z,600.00
2018-12-11T08:30:38.373Z,572.00
2018-12-11T08:31:38.331Z,524.00
2018-12-11T08:32:38.318Z,512.00
2018-12-11T08:33:38.308Z,512.00
2018-12-11T08:34:38.342Z,528.00
2018-12-11T08:35:38.325Z,588.00
2018-12-11T08:36:38.274Z,592.00
2018-12-11T08:37:38.268Z,644.00
2018-12-11T08:38:38.254Z,660.00
2018-12-11T08:39:38.264Z,636.00
2018-12-11T08:40:38.287Z,652.00
2018-12-11T08:41:38.224Z,676.00
2018-12-11T08:42:38.218Z,448.00
2018-12-11T08:43:38.197Z,660.00
2018-12-11T08:44:38.228Z,620.00
2018-12-11T08:45:38.183Z,624.00
2018-12-11T08:46:38.199Z,680.00
2018-12-11T08:47:38.165Z,744.00
2018-12-11T08:48:38.151Z,812.00
2018-12-11T08:49:38.132Z,820.00
2018-12-11T08:50:38.120Z,828.00
2018-12-11T08:51:38.176Z,424.00
2018-12-11T08:52:38.160Z,372.00
2018-12-11T08:53:38.093Z,996.00
2018-12-11T08:54:38.080Z,976.00
2018-12-11T08:55:38.076Z,940.00
2018-12-11T08:56:38.122Z,876.00
2018-12-11T08:57:38.051Z,928.00
2018-12-11T08:58:38.060Z,960.00
2018-12-11T08:59:38.033Z,960.00
2018-12-11T09:00:38.018Z,884.00
2018-12-11T09:01:38.008Z,780.00
2018-12-11T09:02:38.024Z,732.00
2018-12-11T09:03:37.995Z,700.00
2018-12-11T09:04:37.986Z,636.00
2018-12-11T09:05:37.971Z,604.00
2018-12-11T09:06:37.953Z,600.00
2018-12-11T09:07:37.981Z,604.00
2018-12-11T09:08:37.951Z,604.00
2018-12-11T09:09:37.914Z,620.00
2018-12-11T09:10:37.916Z,640.00
2018-12-11T09:11:37.901Z,648.00
2018-12-11T09:12:37.886Z,620.00
2018-12-11T09:13:37.911Z,632.00
2018-12-11T09:14:37.866Z,640.00
2018-12-11T09:15:37.858Z,648.00
2018-12-11T09:16:37.920Z,656.00
2018-12-11T09:17:37.839Z,668.00
2018-12-11T09:18:37.848Z,664.00
2018-12-11T09:19:37.857Z,84.00
2018-12-11T09:20:37.812Z,420.00
2018-12-11T09:21:37.790Z,700.00
2018-12-11T09:22:37.773Z,728.00
2018-12-11T09:23:37.775Z,704.00
2018-12-11T09:24:37.791Z,728.00
2018-12-11T09:25:37.745Z,744.00
2018-12-11T09:26:37.744Z,468.00
2018-12-11T09:27:37.725Z,588.00
2018-12-11T09:28:37.714Z,24.00
2018-12-11T09:29:37.741Z,52.00
2018-12-11T09:30:37.684Z,52.00
2018-12-11T09:31:37.672Z,52.00
2018-12-11T09:32:37.684Z,52.00
2018-12-11T09:33:37.742Z,48.00
2018-12-11T09:34:37.830Z,100.00
2018-12-11T09:35:37.631Z,88.00
2018-12-11T09:36:37.615Z,48.00
2018-12-11T09:37:37.607Z,676.00
2018-12-11T09:38:37.598Z,680.00
2018-12-11T09:39:37.584Z,672.00
2018-12-11T09:40:37.705Z,700.00
2018-12-11T09:41:37.566Z,744.00
2018-12-11T09:42:37.556Z,804.00
2018-12-11T09:43:37.540Z,828.00
2018-12-11T09:44:37.544Z,788.00
2018-12-11T09:45:37.564Z,764.00
2018-12-11T09:46:37.527Z,748.00
2018-12-11T09:47:37.499Z,736.00
2018-12-11T09:48:37.490Z,708.00
2018-12-11T09:49:37.478Z,648.00
2018-12-11T09:50:37.509Z,616.00
2018-12-11T09:51:37.461Z,604.00
2018-12-11T09:52:37.454Z,600.00
2018-12-11T09:53:37.432Z,600.00
2018-12-11T09:54:37.419Z,612.00
2018-12-11T09:55:37.411Z,632.00
2018-12-11T09:56:37.493Z,644.00
2018-12-11T09:57:37.391Z,660.00
2018-12-11T09:58:37.380Z,680.00
2018-12-11T09:59:37.375Z,732.00
2018-12-11T10:00:37.428Z,788.00
2018-12-11T10:01:37.418Z,800.00
2018-12-11T10:02:37.371Z,816.00
2018-12-11T10:03:37.407Z,840.00
2018-12-11T10:04:37.308Z,836.00
2018-12-11T10:05:37.299Z,848.00
2018-12-11T10:06:37.294Z,920.00
2018-12-11T10:07:37.283Z,912.00
2018-12-11T10:08:37.304Z,884.00
2018-12-11T10:09:37.264Z,852.00
2018-12-11T10:10:37.240Z,848.00
2018-12-11T10:11:37.234Z,864.00
2018-12-11T10:12:37.317Z,860.00
2018-12-11T10:13:37.215Z,788.00
2018-12-11T10:14:37.199Z,700.00
2018-12-11T10:15:37.194Z,648.00
2018-12-11T10:16:37.177Z,636.00
2018-12-11T10:17:37.181Z,636.00
2018-12-11T10:18:37.187Z,652.00
2018-12-11T10:19:37.162Z,676.00
2018-12-11T10:20:37.160Z,724.00
2018-12-11T10:21:37.122Z,776.00
2018-12-11T10:22:37.146Z,820.00
2018-12-11T10:23:37.105Z,864.00
2018-12-11T10:24:37.116Z,884.00
2018-12-11T10:25:37.087Z,908.00
2018-12-11T10:26:37.169Z,908.00
2018-12-11T10:27:37.056Z,908.00
2018-12-11T10:28:37.042Z,932.00
2018-12-11T10:29:37.034Z,960.00
2018-12-11T10:30:37.055Z,992.00
2018-12-11T10:31:37.015Z,1060.00
2018-12-11T10:32:37.003Z,1132.00
2018-12-11T10:33:36.997Z,1248.00
2018-12-11T10:34:37.004Z,1400.00
2018-12-11T10:35:36.994Z,1536.00
2018-12-11T10:36:36.993Z,1500.00
2018-12-11T10:37:36.947Z,1344.00
2018-12-11T10:38:36.936Z,1180.00
2018-12-11T10:39:36.929Z,1144.00
2018-12-11T10:40:36.942Z,1120.00
2018-12-11T10:41:36.908Z,1128.00
2018-12-11T10:42:36.887Z,1056.00
2018-12-11T10:43:36.877Z,1060.00
2018-12-11T10:44:36.873Z,1116.00
2018-12-11T10:45:36.895Z,1152.00
2018-12-11T10:46:36.845Z,1184.00
2018-12-11T10:47:36.833Z,1208.00
2018-12-11T10:48:36.826Z,1232.00
2018-12-11T10:49:36.809Z,1268.00
2018-12-11T10:50:36.843Z,1304.00
2018-12-11T10:51:36.785Z,1312.00
2018-12-11T10:52:36.802Z,1304.00
2018-12-11T10:53:36.766Z,1264.00
2018-12-11T10:54:36.753Z,1236.00
2018-12-11T10:55:36.817Z,1180.00
2018-12-11T10:56:36.739Z,1140.00
2018-12-11T10:57:36.723Z,1160.00
2018-12-11T10:58:36.710Z,1204.00
2018-12-11T10:59:36.700Z,1252.00
2018-12-11T11:00:36.738Z,1276.00
2018-12-11T11:01:36.682Z,1324.00
2018-12-11T11:02:36.671Z,1500.00
2018-12-11T11:03:36.665Z,1780.00
2018-12-11T11:04:36.648Z,1940.00
2018-12-11T11:05:36.699Z,1772.00
2018-12-11T11:06:36.627Z,1604.00
2018-12-11T11:07:36.610Z,1552.00
2018-12-11T11:08:36.612Z,1728.00
2018-12-11T11:09:36.595Z,2044.00
2018-12-11T11:10:36.635Z,2252.00
2018-12-11T11:11:36.563Z,2548.00
2018-12-11T11:12:36.561Z,2616.00
2018-12-11T11:13:36.547Z,2456.00
2018-12-11T11:14:36.544Z,2000.00
2018-12-11T11:15:36.532Z,2172.00
2018-12-11T11:16:36.636Z,2396.00
2018-12-11T11:17:36.501Z,2452.00
2018-12-11T11:18:36.502Z,2404.00
2018-12-11T11:19:36.479Z,2280.00
2018-12-11T11:20:36.473Z,2124.00
2018-12-11T11:21:36.460Z,2180.00
2018-12-11T11:22:36.471Z,2672.00
2018-12-11T11:23:36.437Z,3180.00
2018-12-11T11:24:36.425Z,3288.00
2018-12-11T11:25:36.420Z,2988.00
2018-12-11T11:26:36.409Z,2444.00
2018-12-11T11:27:37.806Z,1892.00
2018-12-11T11:28:36.382Z,1420.00
2018-12-11T11:29:36.369Z,1012.00
2018-12-11T11:30:36.366Z,708.00
2018-12-11T11:31:36.353Z,532.00
2018-12-11T11:32:36.345Z,440.00
2018-12-11T11:33:36.374Z,364.00
2018-12-11T11:34:36.318Z,304.00
2018-12-11T11:35:36.345Z,252.00
2018-12-11T11:36:36.301Z,408.00
2018-12-11T11:37:36.284Z,632.00
2018-12-11T11:38:36.291Z,692.00
2018-12-11T11:39:36.328Z,692.00
2018-12-11T11:40:36.249Z,860.00
2018-12-11T11:41:36.246Z,1020.00
2018-12-11T11:42:36.246Z,1208.00
2018-12-11T11:43:36.213Z,1552.00
2018-12-11T11:44:36.241Z,1760.00
2018-12-11T11:45:36.237Z,1456.00
2018-12-11T11:46:36.181Z,1084.00
2018-12-11T11:47:36.181Z,1060.00
2018-12-11T11:48:36.168Z,1156.00
2018-12-11T11:49:36.150Z,1332.00
2018-12-11T11:50:36.183Z,1512.00
2018-12-11T11:51:36.129Z,1564.00
2018-12-11T11:52:36.117Z,1408.00
2018-12-11T11:53:36.118Z,1256.00
2018-12-11T11:54:36.101Z,1196.00
2018-12-11T11:55:36.115Z,1224.00
2018-12-11T11:56:36.081Z,1356.00
2018-12-11T11:57:36.065Z,1448.00
2018-12-11T11:58:36.079Z,1444.00
2018-12-11T11:59:36.052Z,1500.00
2018-12-11T12:00:36.062Z,1708.00
2018-12-11T12:01:36.047Z,1828.00
2018-12-11T12:02:36.008Z,1808.00
2018-12-11T12:03:36.006Z,1680.00
2018-12-11T12:04:36.023Z,1620.00
2018-12-11T12:05:36.014Z,1592.00
2018-12-11T12:06:35.965Z,1620.00
2018-12-11T12:07:35.954Z,1572.00
2018-12-11T12:08:35.956Z,1560.00
2018-12-11T12:09:35.938Z,1492.00
2018-12-11T12:10:35.927Z,1600.00
2018-12-11T12:11:35.943Z,1736.00
2018-12-11T12:12:36.899Z,1804.00
2018-12-11T12:13:35.890Z,1844.00
2018-12-11T12:14:35.879Z,1852.00
2018-12-11T12:15:35.923Z,1916.00
2018-12-11T12:16:35.854Z,2000.00
2018-12-11T12:17:35.847Z,2016.00
2018-12-11T12:18:35.841Z,1904.00
2018-12-11T12:19:35.823Z,1764.00
2018-12-11T12:20:35.814Z,1668.00
2018-12-11T12:21:35.850Z,1564.00
2018-12-11T12:22:35.786Z,1524.00
2018-12-11T12:23:35.777Z,1528.00
2018-12-11T12:24:35.768Z,1512.00
2018-12-11T12:25:35.794Z,1376.00
2018-12-11T12:26:35.819Z,1300.00
2018-12-11T12:27:35.745Z,1372.00
2018-12-11T12:28:35.730Z,1436.00
2018-12-11T12:29:35.712Z,1552.00
2018-12-11T12:30:35.698Z,1648.00
2018-12-11T12:31:35.806Z,1744.00
2018-12-11T12:32:35.683Z,1872.00
2018-12-11T12:33:35.666Z,1996.00
2018-12-11T12:34:35.673Z,1992.00
2018-12-11T12:35:35.662Z,1968.00
2018-12-11T12:36:35.657Z,1916.00
2018-12-11T12:37:35.635Z,1868.00
2018-12-11T12:38:35.617Z,1828.00
2018-12-11T12:39:35.734Z,1864.00
2018-12-11T12:40:35.590Z,1912.00
2018-12-11T12:41:35.608Z,1916.00
2018-12-11T12:42:35.571Z,1940.00
2018-12-11T12:43:35.559Z,1852.00
2018-12-11T12:44:35.552Z,1704.00
2018-12-11T12:45:35.545Z,1580.00
2018-12-11T12:46:35.551Z,1504.00
2018-12-11T12:47:35.519Z,1396.00
2018-12-11T12:48:35.498Z,1364.00
2018-12-11T12:49:35.503Z,1348.00
2018-12-11T12:50:35.488Z,1412.00
2018-12-11T12:51:35.507Z,1348.00
2018-12-11T12:52:35.495Z,1276.00